sensor_id;sensor_type;location;lat;lon;timestamp;P1;durP1;ratioP1;P2;durP2;ratioP2
4555;SDS011;2290;48.674;9.018;2023-08-20T00:00:36;8.63;;;7.70;;
4555;SDS011;2290;48.674;9.018;2023-08-20T00:03:03;10.80;;;8.40;;
4555;SDS011;2290;48.674;9.018;2023-08-20T00:05:35;8.20;;;7.40;;
4555;SDS011;2290;48.674;9.018;2023-08-20T00:08:01;8.73;;;7.23;;
4555;SDS011;2290;48.674;9.018;2023-08-20T00:10:27;10.90;;;7.90;;
4555;SDS011;2290;48.674;9.018;2023-08-20T00:12:53;14.63;;;6.97;;
4555;SDS011;2290;48.674;9.018;2023-08-20T00:15:19;9.40;;;7.47;;
4555;SDS011;2290;48.674;9.018;2023-08-20T00:17:47;11.30;;;8.53;;
4555;SDS011;2290;48.674;9.018;2023-08-20T00:20:13;12.43;;;8.40;;
4555;SDS011;2290;48.674;9.018;2023-08-20T00:22:39;11.33;;;8.67;;
4555;SDS011;2290;48.674;9.018;2023-08-20T00:25:07;12.33;;;8.30;;
4555;SDS011;2290;48.674;9.018;2023-08-20T00:27:33;9.90;;;8.17;;
4555;SDS011;2290;48.674;9.018;2023-08-20T00:29:59;11.03;;;7.87;;
4555;SDS011;2290;48.674;9.018;2023-08-20T00:32:24;9.10;;;7.70;;
4555;SDS011;2290;48.674;9.018;2023-08-20T00:34:50;9.27;;;8.20;;
4555;SDS011;2290;48.674;9.018;2023-08-20T00:37:16;9.33;;;8.13;;
4555;SDS011;2290;48.674;9.018;2023-08-20T00:39:42;13.30;;;8.20;;
4555;SDS011;2290;48.674;9.018;2023-08-20T00:42:08;11.23;;;7.70;;
4555;SDS011;2290;48.674;9.018;2023-08-20T00:44:34;13.03;;;8.00;;
4555;SDS011;2290;48.674;9.018;2023-08-20T00:47:00;10.53;;;7.90;;
4555;SDS011;2290;48.674;9.018;2023-08-20T00:49:27;9.43;;;7.50;;
4555;SDS011;2290;48.674;9.018;2023-08-20T00:51:54;9.43;;;8.07;;
4555;SDS011;2290;48.674;9.018;2023-08-20T00:54:20;9.40;;;7.30;;
4555;SDS011;2290;48.674;9.018;2023-08-20T00:56:47;8.50;;;7.07;;
4555;SDS011;2290;48.674;9.018;2023-08-20T00:59:15;8.77;;;7.40;;
4555;SDS011;2290;48.674;9.018;2023-08-20T01:01:41;9.30;;;7.90;;
4555;SDS011;2290;48.674;9.018;2023-08-20T01:04:06;10.13;;;7.43;;
4555;SDS011;2290;48.674;9.018;2023-08-20T01:06:46;13.87;;;8.47;;
4555;SDS011;2290;48.674;9.018;2023-08-20T01:12:22;10.90;;;8.13;;
4555;SDS011;2290;48.674;9.018;2023-08-20T01:14:49;10.33;;;7.77;;
4555;SDS011;2290;48.674;9.018;2023-08-20T01:17:14;10.40;;;7.90;;
4555;SDS011;2290;48.674;9.018;2023-08-20T01:19:40;12.70;;;7.50;;
4555;SDS011;2290;48.674;9.018;2023-08-20T01:22:26;8.37;;;7.47;;
4555;SDS011;2290;48.674;9.018;2023-08-20T01:28:20;10.20;;;7.97;;
4555;SDS011;2290;48.674;9.018;2023-08-20T01:30:56;12.70;;;7.33;;
4555;SDS011;2290;48.674;9.018;2023-08-20T01:33:24;10.47;;;8.00;;
4555;SDS011;2290;48.674;9.018;2023-08-20T01:35:51;14.03;;;8.43;;
4555;SDS011;2290;48.674;9.018;2023-08-20T01:38:17;12.67;;;9.20;;
4555;SDS011;2290;48.674;9.018;2023-08-20T01:40:42;11.70;;;8.97;;
4555;SDS011;2290;48.674;9.018;2023-08-20T01:43:08;11.57;;;8.00;;
4555;SDS011;2290;48.674;9.018;2023-08-20T01:45:35;10.10;;;8.20;;
4555;SDS011;2290;48.674;9.018;2023-08-20T01:48:01;11.77;;;7.77;;
4555;SDS011;2290;48.674;9.018;2023-08-20T01:50:26;9.23;;;7.40;;
4555;SDS011;2290;48.674;9.018;2023-08-20T01:52:52;9.57;;;7.87;;
4555;SDS011;2290;48.674;9.018;2023-08-20T01:55:19;10.57;;;7.67;;
4555;SDS011;2290;48.674;9.018;2023-08-20T01:57:44;13.03;;;8.00;;
4555;SDS011;2290;48.674;9.018;2023-08-20T02:00:10;8.63;;;7.37;;
4555;SDS011;2290;48.674;9.018;2023-08-20T02:02:37;11.83;;;7.30;;
4555;SDS011;2290;48.674;9.018;2023-08-20T02:05:03;12.70;;;7.80;;
4555;SDS011;2290;48.674;9.018;2023-08-20T02:07:28;9.70;;;7.43;;
4555;SDS011;2290;48.674;9.018;2023-08-20T02:09:54;9.30;;;7.17;;
4555;SDS011;2290;48.674;9.018;2023-08-20T02:12:20;9.27;;;7.10;;
4555;SDS011;2290;48.674;9.018;2023-08-20T02:14:45;9.03;;;7.73;;
4555;SDS011;2290;48.674;9.018;2023-08-20T02:17:11;11.03;;;7.50;;
4555;SDS011;2290;48.674;9.018;2023-08-20T02:19:37;9.37;;;8.40;;
4555;SDS011;2290;48.674;9.018;2023-08-20T02:22:03;9.23;;;7.80;;
4555;SDS011;2290;48.674;9.018;2023-08-20T02:24:29;10.77;;;8.33;;
4555;SDS011;2290;48.674;9.018;2023-08-20T02:26:56;10.30;;;8.10;;
4555;SDS011;2290;48.674;9.018;2023-08-20T02:29:22;10.33;;;7.87;;
4555;SDS011;2290;48.674;9.018;2023-08-20T02:31:47;10.60;;;8.60;;
4555;SDS011;2290;48.674;9.018;2023-08-20T02:34:13;11.73;;;8.97;;
4555;SDS011;2290;48.674;9.018;2023-08-20T02:36:39;10.70;;;8.63;;
4555;SDS011;2290;48.674;9.018;2023-08-20T02:39:04;9.57;;;7.53;;
4555;SDS011;2290;48.674;9.018;2023-08-20T02:41:32;8.80;;;7.80;;
4555;SDS011;2290;48.674;9.018;2023-08-20T02:43:59;9.80;;;7.03;;
4555;SDS011;2290;48.674;9.018;2023-08-20T02:46:25;8.83;;;7.57;;
4555;SDS011;2290;48.674;9.018;2023-08-20T02:48:51;8.60;;;7.20;;
4555;SDS011;2290;48.674;9.018;2023-08-20T02:51:17;11.70;;;7.47;;
4555;SDS011;2290;48.674;9.018;2023-08-20T02:53:42;13.47;;;8.77;;
4555;SDS011;2290;48.674;9.018;2023-08-20T02:56:08;11.07;;;8.57;;
4555;SDS011;2290;48.674;9.018;2023-08-20T02:58:34;8.30;;;7.37;;
4555;SDS011;2290;48.674;9.018;2023-08-20T03:00:59;8.70;;;7.23;;
4555;SDS011;2290;48.674;9.018;2023-08-20T03:03:26;12.13;;;7.87;;
4555;SDS011;2290;48.674;9.018;2023-08-20T03:05:52;10.77;;;7.83;;
4555;SDS011;2290;48.674;9.018;2023-08-20T03:08:18;13.07;;;8.40;;
4555;SDS011;2290;48.674;9.018;2023-08-20T03:10:44;13.93;;;8.50;;
4555;SDS011;2290;48.674;9.018;2023-08-20T03:13:11;12.03;;;7.93;;
4555;SDS011;2290;48.674;9.018;2023-08-20T03:15:37;12.53;;;8.77;;
4555;SDS011;2290;48.674;9.018;2023-08-20T03:18:02;11.27;;;8.23;;
4555;SDS011;2290;48.674;9.018;2023-08-20T03:20:28;8.87;;;7.57;;
4555;SDS011;2290;48.674;9.018;2023-08-20T03:22:56;11.80;;;8.50;;
4555;SDS011;2290;48.674;9.018;2023-08-20T03:25:21;11.60;;;8.30;;
4555;SDS011;2290;48.674;9.018;2023-08-20T03:27:47;10.17;;;8.03;;
4555;SDS011;2290;48.674;9.018;2023-08-20T03:30:13;11.23;;;8.57;;
4555;SDS011;2290;48.674;9.018;2023-08-20T03:32:38;10.73;;;8.77;;
4555;SDS011;2290;48.674;9.018;2023-08-20T03:35:04;11.50;;;9.20;;
4555;SDS011;2290;48.674;9.018;2023-08-20T03:37:30;9.27;;;8.27;;
4555;SDS011;2290;48.674;9.018;2023-08-20T03:39:55;10.33;;;8.63;;
4555;SDS011;2290;48.674;9.018;2023-08-20T03:42:21;13.30;;;8.80;;
4555;SDS011;2290;48.674;9.018;2023-08-20T03:44:47;11.70;;;8.10;;
4555;SDS011;2290;48.674;9.018;2023-08-20T03:47:12;9.37;;;7.30;;
4555;SDS011;2290;48.674;9.018;2023-08-20T03:49:38;10.40;;;7.50;;
4555;SDS011;2290;48.674;9.018;2023-08-20T03:52:04;10.50;;;7.70;;
4555;SDS011;2290;48.674;9.018;2023-08-20T03:54:32;11.80;;;7.87;;
4555;SDS011;2290;48.674;9.018;2023-08-20T03:56:58;10.40;;;8.07;;
4555;SDS011;2290;48.674;9.018;2023-08-20T03:59:24;8.07;;;7.10;;
4555;SDS011;2290;48.674;9.018;2023-08-20T04:01:49;8.60;;;7.53;;
4555;SDS011;2290;48.674;9.018;2023-08-20T04:04:15;11.60;;;8.00;;
4555;SDS011;2290;48.674;9.018;2023-08-20T04:06:40;10.07;;;8.10;;
4555;SDS011;2290;48.674;9.018;2023-08-20T04:09:06;9.77;;;8.40;;
4555;SDS011;2290;48.674;9.018;2023-08-20T04:11:34;11.33;;;8.40;;
4555;SDS011;2290;48.674;9.018;2023-08-20T04:13:59;9.10;;;7.77;;
4555;SDS011;2290;48.674;9.018;2023-08-20T04:16:25;7.93;;;7.10;;
4555;SDS011;2290;48.674;9.018;2023-08-20T04:18:51;11.10;;;7.60;;
4555;SDS011;2290;48.674;9.018;2023-08-20T04:21:16;12.30;;;7.90;;
4555;SDS011;2290;48.674;9.018;2023-08-20T04:23:42;10.53;;;6.97;;
4555;SDS011;2290;48.674;9.018;2023-08-20T04:26:09;12.63;;;8.77;;
4555;SDS011;2290;48.674;9.018;2023-08-20T04:28:34;11.53;;;8.40;;
4555;SDS011;2290;48.674;9.018;2023-08-20T04:31:00;9.47;;;8.13;;
4555;SDS011;2290;48.674;9.018;2023-08-20T04:33:26;9.10;;;7.80;;
4555;SDS011;2290;48.674;9.018;2023-08-20T04:35:52;13.00;;;7.83;;
4555;SDS011;2290;48.674;9.018;2023-08-20T04:38:18;9.10;;;7.20;;
4555;SDS011;2290;48.674;9.018;2023-08-20T04:40:47;9.13;;;7.80;;
4555;SDS011;2290;48.674;9.018;2023-08-20T04:43:13;9.70;;;8.30;;
4555;SDS011;2290;48.674;9.018;2023-08-20T04:45:39;10.50;;;7.40;;
4555;SDS011;2290;48.674;9.018;2023-08-20T04:48:05;10.00;;;7.80;;
4555;SDS011;2290;48.674;9.018;2023-08-20T04:50:31;9.30;;;7.90;;
4555;SDS011;2290;48.674;9.018;2023-08-20T04:52:57;9.50;;;8.00;;
4555;SDS011;2290;48.674;9.018;2023-08-20T04:55:27;9.17;;;8.00;;
4555;SDS011;2290;48.674;9.018;2023-08-20T04:57:52;11.53;;;8.83;;
4555;SDS011;2290;48.674;9.018;2023-08-20T05:00:19;11.17;;;8.33;;
4555;SDS011;2290;48.674;9.018;2023-08-20T05:02:46;10.47;;;8.00;;
4555;SDS011;2290;48.674;9.018;2023-08-20T05:05:12;9.90;;;8.10;;
4555;SDS011;2290;48.674;9.018;2023-08-20T05:07:37;11.73;;;8.13;;
4555;SDS011;2290;48.674;9.018;2023-08-20T05:10:03;10.87;;;8.53;;
4555;SDS011;2290;48.674;9.018;2023-08-20T05:12:29;11.03;;;8.33;;
4555;SDS011;2290;48.674;9.018;2023-08-20T05:14:54;14.60;;;9.03;;
4555;SDS011;2290;48.674;9.018;2023-08-20T05:17:21;10.37;;;7.73;;
4555;SDS011;2290;48.674;9.018;2023-08-20T05:19:46;11.03;;;7.33;;
4555;SDS011;2290;48.674;9.018;2023-08-20T05:22:12;9.90;;;8.00;;
4555;SDS011;2290;48.674;9.018;2023-08-20T05:24:38;9.13;;;8.17;;
4555;SDS011;2290;48.674;9.018;2023-08-20T05:29:33;10.80;;;7.83;;
4555;SDS011;2290;48.674;9.018;2023-08-20T05:31:59;9.77;;;8.30;;
4555;SDS011;2290;48.674;9.018;2023-08-20T05:34:25;9.60;;;8.20;;
4555;SDS011;2290;48.674;9.018;2023-08-20T05:36:50;11.70;;;9.20;;
4555;SDS011;2290;48.674;9.018;2023-08-20T05:39:16;9.70;;;8.37;;
4555;SDS011;2290;48.674;9.018;2023-08-20T05:41:41;13.33;;;8.50;;
4555;SDS011;2290;48.674;9.018;2023-08-20T05:44:07;13.00;;;9.33;;
4555;SDS011;2290;48.674;9.018;2023-08-20T05:46:32;9.60;;;8.20;;
4555;SDS011;2290;48.674;9.018;2023-08-20T05:48:58;8.73;;;7.43;;
4555;SDS011;2290;48.674;9.018;2023-08-20T05:51:23;12.40;;;9.23;;
4555;SDS011;2290;48.674;9.018;2023-08-20T05:53:49;10.57;;;9.23;;
4555;SDS011;2290;48.674;9.018;2023-08-20T05:56:15;12.70;;;8.53;;
4555;SDS011;2290;48.674;9.018;2023-08-20T05:58:40;12.00;;;8.87;;
4555;SDS011;2290;48.674;9.018;2023-08-20T06:01:06;10.70;;;8.40;;
4555;SDS011;2290;48.674;9.018;2023-08-20T06:03:31;15.20;;;8.30;;
4555;SDS011;2290;48.674;9.018;2023-08-20T06:05:57;12.30;;;9.00;;
4555;SDS011;2290;48.674;9.018;2023-08-20T06:08:23;12.93;;;8.53;;
4555;SDS011;2290;48.674;9.018;2023-08-20T06:10:50;10.03;;;8.80;;
4555;SDS011;2290;48.674;9.018;2023-08-20T06:13:15;11.90;;;9.37;;
4555;SDS011;2290;48.674;9.018;2023-08-20T06:15:41;11.60;;;9.40;;
4555;SDS011;2290;48.674;9.018;2023-08-20T06:18:07;11.80;;;9.63;;
4555;SDS011;2290;48.674;9.018;2023-08-20T06:20:32;11.17;;;9.20;;
4555;SDS011;2290;48.674;9.018;2023-08-20T06:22:58;11.57;;;9.00;;
4555;SDS011;2290;48.674;9.018;2023-08-20T06:25:23;12.10;;;8.70;;
4555;SDS011;2290;48.674;9.018;2023-08-20T06:27:49;11.27;;;8.60;;
4555;SDS011;2290;48.674;9.018;2023-08-20T06:30:15;11.70;;;9.87;;
4555;SDS011;2290;48.674;9.018;2023-08-20T06:32:43;13.00;;;9.37;;
4555;SDS011;2290;48.674;9.018;2023-08-20T06:35:09;13.13;;;10.20;;
4555;SDS011;2290;48.674;9.018;2023-08-20T06:37:35;12.07;;;8.80;;
4555;SDS011;2290;48.674;9.018;2023-08-20T06:40:01;10.93;;;9.10;;
4555;SDS011;2290;48.674;9.018;2023-08-20T06:42:28;13.53;;;9.57;;
4555;SDS011;2290;48.674;9.018;2023-08-20T06:44:53;11.67;;;9.90;;
4555;SDS011;2290;48.674;9.018;2023-08-20T06:47:19;11.20;;;9.60;;
4555;SDS011;2290;48.674;9.018;2023-08-20T06:49:44;15.80;;;11.30;;
4555;SDS011;2290;48.674;9.018;2023-08-20T06:52:10;11.83;;;9.20;;
4555;SDS011;2290;48.674;9.018;2023-08-20T06:54:36;12.07;;;9.33;;
4555;SDS011;2290;48.674;9.018;2023-08-20T06:57:01;12.80;;;10.93;;
4555;SDS011;2290;48.674;9.018;2023-08-20T06:59:27;16.30;;;10.30;;
4555;SDS011;2290;48.674;9.018;2023-08-20T07:01:52;11.87;;;9.53;;
4555;SDS011;2290;48.674;9.018;2023-08-20T07:04:18;16.27;;;10.30;;
4555;SDS011;2290;48.674;9.018;2023-08-20T07:06:43;16.40;;;11.53;;
4555;SDS011;2290;48.674;9.018;2023-08-20T07:09:09;12.70;;;9.70;;
4555;SDS011;2290;48.674;9.018;2023-08-20T07:11:35;14.20;;;10.80;;
4555;SDS011;2290;48.674;9.018;2023-08-20T07:14:00;12.53;;;10.30;;
4555;SDS011;2290;48.674;9.018;2023-08-20T07:16:26;12.47;;;9.67;;
4555;SDS011;2290;48.674;9.018;2023-08-20T07:18:51;12.90;;;10.00;;
4555;SDS011;2290;48.674;9.018;2023-08-20T07:21:18;15.90;;;11.30;;
4555;SDS011;2290;48.674;9.018;2023-08-20T07:23:43;11.63;;;9.20;;
4555;SDS011;2290;48.674;9.018;2023-08-20T07:26:10;11.70;;;9.47;;
4555;SDS011;2290;48.674;9.018;2023-08-20T07:28:39;15.27;;;9.67;;
4555;SDS011;2290;48.674;9.018;2023-08-20T07:31:31;13.50;;;10.00;;
4555;SDS011;2290;48.674;9.018;2023-08-20T07:34:00;15.50;;;10.90;;
4555;SDS011;2290;48.674;9.018;2023-08-20T07:36:27;13.70;;;10.30;;
4555;SDS011;2290;48.674;9.018;2023-08-20T07:38:53;13.57;;;10.57;;
4555;SDS011;2290;48.674;9.018;2023-08-20T07:41:19;12.03;;;10.30;;
4555;SDS011;2290;48.674;9.018;2023-08-20T07:43:46;10.17;;;8.87;;
4555;SDS011;2290;48.674;9.018;2023-08-20T07:46:12;11.47;;;9.60;;
4555;SDS011;2290;48.674;9.018;2023-08-20T07:48:38;11.60;;;9.90;;
4555;SDS011;2290;48.674;9.018;2023-08-20T07:51:04;12.57;;;10.17;;
4555;SDS011;2290;48.674;9.018;2023-08-20T07:53:31;12.93;;;10.27;;
4555;SDS011;2290;48.674;9.018;2023-08-20T07:55:57;11.87;;;10.00;;
4555;SDS011;2290;48.674;9.018;2023-08-20T07:58:22;12.20;;;9.27;;
4555;SDS011;2290;48.674;9.018;2023-08-20T08:00:48;17.10;;;9.40;;
4555;SDS011;2290;48.674;9.018;2023-08-20T08:03:13;12.37;;;10.33;;
4555;SDS011;2290;48.674;9.018;2023-08-20T08:05:45;15.40;;;10.03;;
4555;SDS011;2290;48.674;9.018;2023-08-20T08:08:12;12.10;;;9.83;;
4555;SDS011;2290;48.674;9.018;2023-08-20T08:10:38;11.73;;;8.97;;
4555;SDS011;2290;48.674;9.018;2023-08-20T08:13:03;12.90;;;9.83;;
4555;SDS011;2290;48.674;9.018;2023-08-20T08:15:29;11.30;;;9.77;;
4555;SDS011;2290;48.674;9.018;2023-08-20T08:17:54;12.13;;;9.57;;
4555;SDS011;2290;48.674;9.018;2023-08-20T08:20:20;12.30;;;10.03;;
4555;SDS011;2290;48.674;9.018;2023-08-20T08:22:45;11.37;;;9.33;;
4555;SDS011;2290;48.674;9.018;2023-08-20T08:25:11;11.63;;;9.87;;
4555;SDS011;2290;48.674;9.018;2023-08-20T08:27:37;14.03;;;9.83;;
4555;SDS011;2290;48.674;9.018;2023-08-20T08:30:02;18.50;;;10.20;;
4555;SDS011;2290;48.674;9.018;2023-08-20T08:32:28;11.40;;;9.77;;
4555;SDS011;2290;48.674;9.018;2023-08-20T08:34:54;12.27;;;9.60;;
4555;SDS011;2290;48.674;9.018;2023-08-20T08:37:19;10.97;;;8.93;;
4555;SDS011;2290;48.674;9.018;2023-08-20T08:39:45;12.43;;;9.57;;
4555;SDS011;2290;48.674;9.018;2023-08-20T08:42:10;11.30;;;10.00;;
4555;SDS011;2290;48.674;9.018;2023-08-20T08:44:37;10.40;;;9.27;;
4555;SDS011;2290;48.674;9.018;2023-08-20T08:47:04;11.03;;;9.37;;
4555;SDS011;2290;48.674;9.018;2023-08-20T08:49:32;13.80;;;9.87;;
4555;SDS011;2290;48.674;9.018;2023-08-20T08:52:00;11.17;;;8.67;;
4555;SDS011;2290;48.674;9.018;2023-08-20T08:54:28;10.87;;;9.13;;
4555;SDS011;2290;48.674;9.018;2023-08-20T08:56:54;10.90;;;8.63;;
4555;SDS011;2290;48.674;9.018;2023-08-20T08:59:21;9.80;;;8.60;;
4555;SDS011;2290;48.674;9.018;2023-08-20T09:01:46;11.00;;;8.70;;
4555;SDS011;2290;48.674;9.018;2023-08-20T09:04:12;11.03;;;8.80;;
4555;SDS011;2290;48.674;9.018;2023-08-20T09:06:48;9.53;;;8.23;;
4555;SDS011;2290;48.674;9.018;2023-08-20T09:09:19;10.90;;;8.10;;
4555;SDS011;2290;48.674;9.018;2023-08-20T09:11:46;13.60;;;8.40;;
4555;SDS011;2290;48.674;9.018;2023-08-20T09:16:59;9.93;;;8.67;;
4555;SDS011;2290;48.674;9.018;2023-08-20T09:19:29;9.10;;;7.97;;
4555;SDS011;2290;48.674;9.018;2023-08-20T09:21:58;10.80;;;8.37;;
4555;SDS011;2290;48.674;9.018;2023-08-20T09:24:34;10.63;;;9.30;;
4555;SDS011;2290;48.674;9.018;2023-08-20T09:27:20;9.10;;;8.20;;
4555;SDS011;2290;48.674;9.018;2023-08-20T09:29:53;10.13;;;8.63;;
4555;SDS011;2290;48.674;9.018;2023-08-20T09:32:21;12.50;;;8.77;;
4555;SDS011;2290;48.674;9.018;2023-08-20T09:34:48;9.93;;;8.80;;
4555;SDS011;2290;48.674;9.018;2023-08-20T09:37:15;11.67;;;9.67;;
4555;SDS011;2290;48.674;9.018;2023-08-20T09:39:42;10.20;;;9.10;;
4555;SDS011;2290;48.674;9.018;2023-08-20T09:42:08;11.93;;;8.80;;
4555;SDS011;2290;48.674;9.018;2023-08-20T09:44:39;12.20;;;8.20;;
4555;SDS011;2290;48.674;9.018;2023-08-20T09:47:06;10.03;;;8.53;;
4555;SDS011;2290;48.674;9.018;2023-08-20T09:49:43;11.00;;;8.60;;
4555;SDS011;2290;48.674;9.018;2023-08-20T09:52:12;10.40;;;8.40;;
4555;SDS011;2290;48.674;9.018;2023-08-20T09:55:00;11.27;;;9.40;;
4555;SDS011;2290;48.674;9.018;2023-08-20T09:57:37;10.93;;;9.83;;
4555;SDS011;2290;48.674;9.018;2023-08-20T10:00:13;15.40;;;8.93;;
4555;SDS011;2290;48.674;9.018;2023-08-20T10:02:39;13.80;;;9.03;;
4555;SDS011;2290;48.674;9.018;2023-08-20T10:05:08;14.90;;;9.27;;
4555;SDS011;2290;48.674;9.018;2023-08-20T10:07:36;13.20;;;8.80;;
4555;SDS011;2290;48.674;9.018;2023-08-20T10:10:03;10.03;;;8.70;;
4555;SDS011;2290;48.674;9.018;2023-08-20T10:12:30;9.97;;;8.93;;
4555;SDS011;2290;48.674;9.018;2023-08-20T10:14:57;9.53;;;8.07;;
4555;SDS011;2290;48.674;9.018;2023-08-20T10:17:28;10.13;;;8.47;;
4555;SDS011;2290;48.674;9.018;2023-08-20T10:19:55;10.53;;;8.53;;
4555;SDS011;2290;48.674;9.018;2023-08-20T10:22:25;10.53;;;8.50;;
4555;SDS011;2290;48.674;9.018;2023-08-20T10:25:25;9.70;;;7.83;;
4555;SDS011;2290;48.674;9.018;2023-08-20T10:27:51;15.27;;;8.73;;
4555;SDS011;2290;48.674;9.018;2023-08-20T10:30:26;9.63;;;8.40;;
4555;SDS011;2290;48.674;9.018;2023-08-20T10:32:53;10.17;;;7.70;;
4555;SDS011;2290;48.674;9.018;2023-08-20T10:35:26;9.27;;;7.93;;
4555;SDS011;2290;48.674;9.018;2023-08-20T10:38:02;11.97;;;9.07;;
4555;SDS011;2290;48.674;9.018;2023-08-20T10:48:35;9.73;;;8.73;;
4555;SDS011;2290;48.674;9.018;2023-08-20T10:51:12;10.80;;;8.67;;
4555;SDS011;2290;48.674;9.018;2023-08-20T10:53:39;10.70;;;8.10;;
4555;SDS011;2290;48.674;9.018;2023-08-20T10:56:13;10.30;;;7.90;;
4555;SDS011;2290;48.674;9.018;2023-08-20T10:58:40;10.33;;;8.83;;
4555;SDS011;2290;48.674;9.018;2023-08-20T11:01:18;10.10;;;8.30;;
4555;SDS011;2290;48.674;9.018;2023-08-20T11:03:46;11.17;;;8.93;;
4555;SDS011;2290;48.674;9.018;2023-08-20T11:06:16;10.83;;;8.60;;
4555;SDS011;2290;48.674;9.018;2023-08-20T11:08:43;9.60;;;8.60;;
4555;SDS011;2290;48.674;9.018;2023-08-20T11:11:09;9.53;;;8.53;;
4555;SDS011;2290;48.674;9.018;2023-08-20T11:13:36;9.53;;;8.03;;
4555;SDS011;2290;48.674;9.018;2023-08-20T11:16:02;9.20;;;7.90;;
4555;SDS011;2290;48.674;9.018;2023-08-20T11:18:30;9.93;;;8.80;;
4555;SDS011;2290;48.674;9.018;2023-08-20T11:20:57;9.47;;;8.57;;
4555;SDS011;2290;48.674;9.018;2023-08-20T11:23:23;9.33;;;8.07;;
4555;SDS011;2290;48.674;9.018;2023-08-20T11:25:50;8.87;;;7.70;;
4555;SDS011;2290;48.674;9.018;2023-08-20T11:28:15;9.10;;;7.90;;
4555;SDS011;2290;48.674;9.018;2023-08-20T11:30:41;10.00;;;7.70;;
4555;SDS011;2290;48.674;9.018;2023-08-20T11:33:07;9.23;;;8.03;;
4555;SDS011;2290;48.674;9.018;2023-08-20T11:35:33;10.00;;;7.93;;
4555;SDS011;2290;48.674;9.018;2023-08-20T11:38:00;8.27;;;7.40;;
4555;SDS011;2290;48.674;9.018;2023-08-20T11:40:26;10.40;;;8.10;;
4555;SDS011;2290;48.674;9.018;2023-08-20T11:42:51;10.10;;;8.07;;
4555;SDS011;2290;48.674;9.018;2023-08-20T11:45:17;8.67;;;7.87;;
4555;SDS011;2290;48.674;9.018;2023-08-20T11:47:43;12.97;;;8.10;;
4555;SDS011;2290;48.674;9.018;2023-08-20T11:50:09;8.67;;;7.83;;
4555;SDS011;2290;48.674;9.018;2023-08-20T11:52:35;8.83;;;7.93;;
4555;SDS011;2290;48.674;9.018;2023-08-20T11:55:02;8.77;;;7.80;;
4555;SDS011;2290;48.674;9.018;2023-08-20T11:57:28;10.90;;;7.70;;
4555;SDS011;2290;48.674;9.018;2023-08-20T11:59:55;9.63;;;8.50;;
4555;SDS011;2290;48.674;9.018;2023-08-20T12:02:30;12.03;;;8.27;;
4555;SDS011;2290;48.674;9.018;2023-08-20T12:04:56;9.50;;;8.17;;
4555;SDS011;2290;48.674;9.018;2023-08-20T12:07:26;8.60;;;7.80;;
4555;SDS011;2290;48.674;9.018;2023-08-20T12:09:52;9.13;;;8.23;;
4555;SDS011;2290;48.674;9.018;2023-08-20T12:12:19;8.07;;;7.30;;
4555;SDS011;2290;48.674;9.018;2023-08-20T12:14:46;12.13;;;8.47;;
4555;SDS011;2290;48.674;9.018;2023-08-20T12:17:12;10.53;;;8.03;;
4555;SDS011;2290;48.674;9.018;2023-08-20T12:19:37;9.60;;;8.70;;
4555;SDS011;2290;48.674;9.018;2023-08-20T12:22:03;9.50;;;8.60;;
4555;SDS011;2290;48.674;9.018;2023-08-20T12:24:29;9.97;;;8.20;;
4555;SDS011;2290;48.674;9.018;2023-08-20T12:26:54;10.50;;;8.30;;
4555;SDS011;2290;48.674;9.018;2023-08-20T12:29:20;8.80;;;7.97;;
4555;SDS011;2290;48.674;9.018;2023-08-20T12:31:45;9.00;;;8.10;;
4555;SDS011;2290;48.674;9.018;2023-08-20T12:34:11;10.40;;;8.43;;
4555;SDS011;2290;48.674;9.018;2023-08-20T12:36:37;9.80;;;8.80;;
4555;SDS011;2290;48.674;9.018;2023-08-20T12:39:03;10.47;;;8.40;;
4555;SDS011;2290;48.674;9.018;2023-08-20T12:41:29;13.43;;;8.20;;
4555;SDS011;2290;48.674;9.018;2023-08-20T12:43:55;8.57;;;7.63;;
4555;SDS011;2290;48.674;9.018;2023-08-20T12:46:21;9.80;;;8.90;;
4555;SDS011;2290;48.674;9.018;2023-08-20T12:48:46;11.40;;;8.40;;
4555;SDS011;2290;48.674;9.018;2023-08-20T12:51:12;9.77;;;8.20;;
4555;SDS011;2290;48.674;9.018;2023-08-20T12:53:39;9.33;;;8.43;;
4555;SDS011;2290;48.674;9.018;2023-08-20T12:56:04;8.77;;;7.90;;
4555;SDS011;2290;48.674;9.018;2023-08-20T12:58:30;9.23;;;7.90;;
4555;SDS011;2290;48.674;9.018;2023-08-20T13:00:55;9.23;;;8.33;;
4555;SDS011;2290;48.674;9.018;2023-08-20T13:03:21;7.73;;;7.03;;
4555;SDS011;2290;48.674;9.018;2023-08-20T13:05:47;9.47;;;8.57;;
4555;SDS011;2290;48.674;9.018;2023-08-20T13:08:13;8.83;;;7.93;;
4555;SDS011;2290;48.674;9.018;2023-08-20T13:10:42;8.33;;;7.53;;
4555;SDS011;2290;48.674;9.018;2023-08-20T13:13:14;9.33;;;8.33;;
4555;SDS011;2290;48.674;9.018;2023-08-20T13:15:44;10.47;;;8.20;;
4555;SDS011;2290;48.674;9.018;2023-08-20T13:18:10;10.90;;;9.70;;
4555;SDS011;2290;48.674;9.018;2023-08-20T13:20:38;9.90;;;8.90;;
4555;SDS011;2290;48.674;9.018;2023-08-20T13:23:04;9.83;;;8.83;;
4555;SDS011;2290;48.674;9.018;2023-08-20T13:25:30;8.83;;;8.03;;
4555;SDS011;2290;48.674;9.018;2023-08-20T13:27:56;9.77;;;8.87;;
4555;SDS011;2290;48.674;9.018;2023-08-20T13:30:21;10.90;;;9.30;;
4555;SDS011;2290;48.674;9.018;2023-08-20T13:32:47;10.10;;;9.10;;
4555;SDS011;2290;48.674;9.018;2023-08-20T13:35:12;11.30;;;10.03;;
4555;SDS011;2290;48.674;9.018;2023-08-20T13:37:39;11.10;;;9.20;;
4555;SDS011;2290;48.674;9.018;2023-08-20T13:40:05;9.97;;;8.97;;
4555;SDS011;2290;48.674;9.018;2023-08-20T13:42:34;9.30;;;8.30;;
4555;SDS011;2290;48.674;9.018;2023-08-20T13:44:59;10.43;;;8.50;;
4555;SDS011;2290;48.674;9.018;2023-08-20T13:47:25;9.60;;;8.37;;
4555;SDS011;2290;48.674;9.018;2023-08-20T13:49:51;9.07;;;7.97;;
4555;SDS011;2290;48.674;9.018;2023-08-20T13:52:16;9.23;;;8.30;;
4555;SDS011;2290;48.674;9.018;2023-08-20T13:54:42;9.63;;;8.17;;
4555;SDS011;2290;48.674;9.018;2023-08-20T13:57:07;8.13;;;7.40;;
4555;SDS011;2290;48.674;9.018;2023-08-20T13:59:33;9.00;;;8.17;;
4555;SDS011;2290;48.674;9.018;2023-08-20T14:02:00;8.93;;;7.40;;
4555;SDS011;2290;48.674;9.018;2023-08-20T14:04:25;8.70;;;7.80;;
4555;SDS011;2290;48.674;9.018;2023-08-20T14:06:52;8.67;;;7.83;;
4555;SDS011;2290;48.674;9.018;2023-08-20T14:09:18;9.50;;;7.33;;
4555;SDS011;2290;48.674;9.018;2023-08-20T14:11:44;9.13;;;8.23;;
4555;SDS011;2290;48.674;9.018;2023-08-20T14:14:10;9.60;;;8.60;;
4555;SDS011;2290;48.674;9.018;2023-08-20T14:16:35;9.73;;;8.47;;
4555;SDS011;2290;48.674;9.018;2023-08-20T14:19:01;8.80;;;7.90;;
4555;SDS011;2290;48.674;9.018;2023-08-20T14:21:26;10.00;;;8.20;;
4555;SDS011;2290;48.674;9.018;2023-08-20T14:23:52;8.97;;;8.07;;
4555;SDS011;2290;48.674;9.018;2023-08-20T14:26:18;8.83;;;8.03;;
4555;SDS011;2290;48.674;9.018;2023-08-20T14:28:43;8.43;;;7.20;;
4555;SDS011;2290;48.674;9.018;2023-08-20T14:31:09;10.20;;;7.63;;
4555;SDS011;2290;48.674;9.018;2023-08-20T14:33:35;8.80;;;7.90;;
4555;SDS011;2290;48.674;9.018;2023-08-20T14:36:01;9.13;;;8.20;;
4555;SDS011;2290;48.674;9.018;2023-08-20T14:38:29;9.90;;;8.23;;
4555;SDS011;2290;48.674;9.018;2023-08-20T14:40:58;9.10;;;7.13;;
4555;SDS011;2290;48.674;9.018;2023-08-20T14:43:28;8.50;;;7.70;;
4555;SDS011;2290;48.674;9.018;2023-08-20T14:45:54;8.47;;;7.40;;
4555;SDS011;2290;48.674;9.018;2023-08-20T14:48:21;8.43;;;7.63;;
4555;SDS011;2290;48.674;9.018;2023-08-20T14:50:50;11.90;;;7.57;;
4555;SDS011;2290;48.674;9.018;2023-08-20T14:53:16;11.00;;;7.70;;
4555;SDS011;2290;48.674;9.018;2023-08-20T14:55:42;9.57;;;7.77;;
4555;SDS011;2290;48.674;9.018;2023-08-20T14:58:09;8.57;;;7.67;;
4555;SDS011;2290;48.674;9.018;2023-08-20T15:00:34;9.73;;;7.70;;
4555;SDS011;2290;48.674;9.018;2023-08-20T15:03:00;9.20;;;7.00;;
4555;SDS011;2290;48.674;9.018;2023-08-20T15:05:28;11.70;;;8.20;;
4555;SDS011;2290;48.674;9.018;2023-08-20T15:07:54;9.63;;;7.30;;
4555;SDS011;2290;48.674;9.018;2023-08-20T15:10:19;8.93;;;7.43;;
4555;SDS011;2290;48.674;9.018;2023-08-20T15:12:45;7.70;;;6.90;;
4555;SDS011;2290;48.674;9.018;2023-08-20T15:15:11;8.43;;;7.10;;
4555;SDS011;2290;48.674;9.018;2023-08-20T15:17:37;8.43;;;7.27;;
4555;SDS011;2290;48.674;9.018;2023-08-20T15:20:03;8.67;;;7.23;;
4555;SDS011;2290;48.674;9.018;2023-08-20T15:22:36;8.03;;;6.80;;